sensor_id;sensor_type;location;lat;lon;timestamp;pressure;altitude;pressure_sealevel;temperature;humidity
70589;BME280;58152;49.202;18.744;2023-07-13T00:00:19;97023.88;;;23.06;58.88
70589;BME280;58152;49.202;18.744;2023-07-13T00:02:44;97030.38;;;23.04;59.18
70589;BME280;58152;49.202;18.744;2023-07-13T00:05:10;97044.75;;;23.03;59.25
70589;BME280;58152;49.202;18.744;2023-07-13T00:07:36;97041.53;;;22.99;59.24
70589;BME280;58152;49.202;18.744;2023-07-13T00:10:03;97052.94;;;23.01;59.16
70589;BME280;58152;49.202;18.744;2023-07-13T00:12:37;97062.00;;;23.08;59.61
70589;BME280;58152;49.202;18.744;2023-07-13T00:15:22;97049.34;;;23.11;59.74
70589;BME280;58152;49.202;18.744;2023-07-13T00:17:52;97039.47;;;23.11;59.17
70589;BME280;58152;49.202;18.744;2023-07-13T00:20:22;97053.88;;;23.18;59.18
70589;BME280;58152;49.202;18.744;2023-07-13T00:22:50;97055.06;;;23.16;59.27
70589;BME280;58152;49.202;18.744;2023-07-13T00:25:16;97047.88;;;23.16;59.32
70589;BME280;58152;49.202;18.744;2023-07-13T00:27:43;97038.47;;;23.12;59.55
70589;BME280;58152;49.202;18.744;2023-07-13T00:30:09;97032.06;;;23.05;59.60
70589;BME280;58152;49.202;18.744;2023-07-13T00:32:35;97042.59;;;23.06;59.42
70589;BME280;58152;49.202;18.744;2023-07-13T00:35:02;97040.94;;;23.05;59.36
70589;BME280;58152;49.202;18.744;2023-07-13T00:37:29;97039.41;;;23.03;59.68
70589;BME280;58152;49.202;18.744;2023-07-13T00:39:55;97031.84;;;22.98;59.44
70589;BME280;58152;49.202;18.744;2023-07-13T00:42:20;97033.50;;;22.99;59.79
70589;BME280;58152;49.202;18.744;2023-07-13T00:45:06;97022.31;;;22.96;60.79
70589;BME280;58152;49.202;18.744;2023-07-13T00:47:33;97040.03;;;22.97;59.81
70589;BME280;58152;49.202;18.744;2023-07-13T00:49:59;97025.69;;;22.88;60.07
70589;BME280;58152;49.202;18.744;2023-07-13T00:52:25;97033.88;;;22.87;60.28
70589;BME280;58152;49.202;18.744;2023-07-13T00:54:51;97039.38;;;22.85;60.18
70589;BME280;58152;49.202;18.744;2023-07-13T00:57:19;97063.78;;;22.82;60.57
70589;BME280;58152;49.202;18.744;2023-07-13T00:59:50;97075.31;;;22.82;60.25
70589;BME280;58152;49.202;18.744;2023-07-13T01:02:17;97070.25;;;22.79;60.49
70589;BME280;58152;49.202;18.744;2023-07-13T01:04:43;97082.41;;;22.74;60.50
70589;BME280;58152;49.202;18.744;2023-07-13T01:07:09;97090.25;;;22.75;60.82
70589;BME280;58152;49.202;18.744;2023-07-13T01:09:36;97092.16;;;22.65;60.75
70589;BME280;58152;49.202;18.744;2023-07-13T01:12:04;97092.47;;;22.62;61.00
70589;BME280;58152;49.202;18.744;2023-07-13T01:14:32;97094.28;;;22.62;61.04
70589;BME280;58152;49.202;18.744;2023-07-13T01:16:58;97090.25;;;22.57;61.53
70589;BME280;58152;49.202;18.744;2023-07-13T01:19:43;97092.22;;;22.55;62.30
70589;BME280;58152;49.202;18.744;2023-07-13T01:22:14;97104.75;;;22.55;61.73
70589;BME280;58152;49.202;18.744;2023-07-13T01:24:43;97108.72;;;22.51;61.91
70589;BME280;58152;49.202;18.744;2023-07-13T01:27:12;97101.59;;;22.42;62.67
70589;BME280;58152;49.202;18.744;2023-07-13T01:29:43;97104.28;;;22.42;63.04
70589;BME280;58152;49.202;18.744;2023-07-13T01:32:11;97084.47;;;22.35;63.12
70589;BME280;58152;49.202;18.744;2023-07-13T01:34:37;97069.88;;;22.29;63.47
70589;BME280;58152;49.202;18.744;2023-07-13T01:37:04;97070.28;;;22.34;63.62
70589;BME280;58152;49.202;18.744;2023-07-13T01:39:34;97061.56;;;22.32;63.41
70589;BME280;58152;49.202;18.744;2023-07-13T01:42:01;97067.31;;;22.37;63.77
70589;BME280;58152;49.202;18.744;2023-07-13T01:44:30;97075.72;;;22.42;63.80
70589;BME280;58152;49.202;18.744;2023-07-13T01:46:59;97072.88;;;22.44;63.72
70589;BME280;58152;49.202;18.744;2023-07-13T01:49:25;97071.31;;;22.51;63.89
70589;BME280;58152;49.202;18.744;2023-07-13T01:51:58;97060.75;;;22.49;64.31
70589;BME280;58152;49.202;18.744;2023-07-13T01:54:27;97045.84;;;22.47;63.76
70589;BME280;58152;49.202;18.744;2023-07-13T01:56:52;97035.84;;;22.49;63.58
70589;BME280;58152;49.202;18.744;2023-07-13T01:59:18;97028.38;;;22.52;63.89
70589;BME280;58152;49.202;18.744;2023-07-13T02:01:43;97028.22;;;22.54;64.13
70589;BME280;58152;49.202;18.744;2023-07-13T02:04:09;97027.38;;;22.53;64.23
70589;BME280;58152;49.202;18.744;2023-07-13T02:06:36;97027.53;;;22.52;64.38
70589;BME280;58152;49.202;18.744;2023-07-13T02:09:02;97035.94;;;22.57;64.38
70589;BME280;58152;49.202;18.744;2023-07-13T02:11:28;97029.53;;;22.50;64.58
70589;BME280;58152;49.202;18.744;2023-07-13T02:14:01;97020.66;;;22.49;64.65
70589;BME280;58152;49.202;18.744;2023-07-13T02:16:27;97026.16;;;22.48;64.89
70589;BME280;58152;49.202;18.744;2023-07-13T02:18:53;97034.72;;;22.51;65.13
70589;BME280;58152;49.202;18.744;2023-07-13T02:21:20;97014.47;;;22.49;65.11
70589;BME280;58152;49.202;18.744;2023-07-13T02:23:45;97010.56;;;22.43;65.16
70589;BME280;58152;49.202;18.744;2023-07-13T02:26:11;97007.06;;;22.43;65.57
70589;BME280;58152;49.202;18.744;2023-07-13T02:28:38;96994.59;;;22.33;65.49
70589;BME280;58152;49.202;18.744;2023-07-13T02:31:09;97018.38;;;22.37;65.91
70589;BME280;58152;49.202;18.744;2023-07-13T02:33:35;97007.41;;;22.30;65.80
70589;BME280;58152;49.202;18.744;2023-07-13T02:36:00;97020.66;;;22.31;65.72
70589;BME280;58152;49.202;18.744;2023-07-13T02:38:26;97019.28;;;22.27;65.71
70589;BME280;58152;49.202;18.744;2023-07-13T02:40:51;97024.06;;;22.24;65.94
70589;BME280;58152;49.202;18.744;2023-07-13T02:43:26;97027.56;;;22.24;66.16
70589;BME280;58152;49.202;18.744;2023-07-13T02:45:53;97016.25;;;22.13;65.90
70589;BME280;58152;49.202;18.744;2023-07-13T02:48:23;97008.50;;;22.10;65.60
70589;BME280;58152;49.202;18.744;2023-07-13T02:50:52;97016.66;;;22.08;65.70
70589;BME280;58152;49.202;18.744;2023-07-13T02:53:29;97039.16;;;22.15;65.58
70589;BME280;58152;49.202;18.744;2023-07-13T02:56:01;97033.41;;;22.10;65.31
70589;BME280;58152;49.202;18.744;2023-07-13T02:58:29;97034.69;;;22.06;65.28
70589;BME280;58152;49.202;18.744;2023-07-13T03:00:55;97031.84;;;22.07;65.23
70589;BME280;58152;49.202;18.744;2023-07-13T03:03:23;97041.69;;;22.07;65.24
70589;BME280;58152;49.202;18.744;2023-07-13T03:05:58;97044.81;;;22.02;65.37
70589;BME280;58152;49.202;18.744;2023-07-13T03:08:28;97052.69;;;22.04;65.29
70589;BME280;58152;49.202;18.744;2023-07-13T03:11:07;97044.41;;;21.97;65.60
70589;BME280;58152;49.202;18.744;2023-07-13T03:13:36;97047.63;;;22.01;65.25
70589;BME280;58152;49.202;18.744;2023-07-13T03:16:06;97045.97;;;22.00;65.45
70589;BME280;58152;49.202;18.744;2023-07-13T03:18:37;97041.91;;;21.96;65.29
70589;BME280;58152;49.202;18.744;2023-07-13T03:21:05;97046.69;;;21.92;65.49
70589;BME280;58152;49.202;18.744;2023-07-13T03:23:30;97053.59;;;21.95;65.55
70589;BME280;58152;49.202;18.744;2023-07-13T03:26:06;97068.22;;;21.91;65.88
70589;BME280;58152;49.202;18.744;2023-07-13T03:28:38;97069.09;;;21.81;65.90
70589;BME280;58152;49.202;18.744;2023-07-13T03:31:11;97064.88;;;21.79;66.09
70589;BME280;58152;49.202;18.744;2023-07-13T03:33:38;97069.13;;;21.72;66.11
70589;BME280;58152;49.202;18.744;2023-07-13T03:36:24;97068.81;;;21.75;66.98
70589;BME280;58152;49.202;18.744;2023-07-13T03:38:59;97058.75;;;21.69;66.32
70589;BME280;58152;49.202;18.744;2023-07-13T03:41:29;97060.13;;;21.73;66.23
70589;BME280;58152;49.202;18.744;2023-07-13T03:43:57;97070.50;;;21.76;66.25
70589;BME280;58152;49.202;18.744;2023-07-13T03:46:23;97059.97;;;21.74;66.28
70589;BME280;58152;49.202;18.744;2023-07-13T03:48:56;97067.69;;;21.77;66.12
70589;BME280;58152;49.202;18.744;2023-07-13T03:51:38;97073.03;;;21.77;66.47
70589;BME280;58152;49.202;18.744;2023-07-13T03:54:04;97082.28;;;21.83;66.38
70589;BME280;58152;49.202;18.744;2023-07-13T03:56:30;97081.88;;;21.78;66.56
70589;BME280;58152;49.202;18.744;2023-07-13T03:59:15;97085.56;;;21.77;66.47
70589;BME280;58152;49.202;18.744;2023-07-13T04:01:45;97092.56;;;21.78;66.65
70589;BME280;58152;49.202;18.744;2023-07-13T04:04:13;97101.41;;;21.78;66.95
70589;BME280;58152;49.202;18.744;2023-07-13T04:06:41;97099.03;;;21.75;67.09
70589;BME280;58152;49.202;18.744;2023-07-13T04:09:10;97099.19;;;21.74;67.26
70589;BME280;58152;49.202;18.744;2023-07-13T04:11:37;97097.50;;;21.73;67.39
70589;BME280;58152;49.202;18.744;2023-07-13T04:14:03;97099.03;;;21.75;67.52
70589;BME280;58152;49.202;18.744;2023-07-13T04:16:28;97116.75;;;21.76;67.72
70589;BME280;58152;49.202;18.744;2023-07-13T04:18:57;97104.97;;;21.69;67.54
70589;BME280;58152;49.202;18.744;2023-07-13T04:21:26;97112.38;;;21.75;67.53
70589;BME280;58152;49.202;18.744;2023-07-13T04:23:52;97108.75;;;21.76;67.49
70589;BME280;58152;49.202;18.744;2023-07-13T04:26:27;97099.03;;;21.75;67.58
70589;BME280;58152;49.202;18.744;2023-07-13T04:28:58;97099.44;;;21.80;67.63
70589;BME280;58152;49.202;18.744;2023-07-13T04:31:23;97091.72;;;21.77;67.87
70589;BME280;58152;49.202;18.744;2023-07-13T04:33:49;97101.25;;;21.80;68.06
70589;BME280;58152;49.202;18.744;2023-07-13T04:36:16;97099.88;;;21.76;68.17
70589;BME280;58152;49.202;18.744;2023-07-13T04:38:44;97100.03;;;21.74;68.60
70589;BME280;58152;49.202;18.744;2023-07-13T04:41:10;97088.50;;;21.74;68.49
70589;BME280;58152;49.202;18.744;2023-07-13T04:43:38;97085.00;;;21.73;68.78
70589;BME280;58152;49.202;18.744;2023-07-13T04:46:09;97089.91;;;21.78;68.90
70589;BME280;58152;49.202;18.744;2023-07-13T04:48:39;97079.38;;;21.76;68.86
70589;BME280;58152;49.202;18.744;2023-07-13T04:51:04;97079.78;;;21.81;68.78
70589;BME280;58152;49.202;18.744;2023-07-13T04:53:31;97088.47;;;21.83;68.68
70589;BME280;58152;49.202;18.744;2023-07-13T04:56:01;97092.13;;;21.82;68.76
70589;BME280;58152;49.202;18.744;2023-07-13T04:58:27;97088.31;;;21.85;68.87
70589;BME280;58152;49.202;18.744;2023-07-13T05:00:53;97093.22;;;21.90;68.79
70589;BME280;58152;49.202;18.744;2023-07-13T05:03:19;97081.84;;;21.88;68.22
70589;BME280;58152;49.202;18.744;2023-07-13T05:06:15;97081.56;;;21.91;68.49
70589;BME280;58152;49.202;18.744;2023-07-13T05:08:39;97082.53;;;21.90;68.32
70589;BME280;58152;49.202;18.744;2023-07-13T05:11:05;97088.16;;;21.96;68.23
70589;BME280;58152;49.202;18.744;2023-07-13T05:13:32;97085.75;;;21.93;68.31
70589;BME280;58152;49.202;18.744;2023-07-13T05:16:03;97084.19;;;22.00;68.19
70589;BME280;58152;49.202;18.744;2023-07-13T05:18:29;97090.66;;;21.98;68.41
70589;BME280;58152;49.202;18.744;2023-07-13T05:21:02;97089.81;;;21.97;68.05
70589;BME280;58152;49.202;18.744;2023-07-13T05:23:29;97099.91;;;22.03;67.74
70589;BME280;58152;49.202;18.744;2023-07-13T05:25:55;97093.72;;;22.03;67.57
70589;BME280;58152;49.202;18.744;2023-07-13T05:28:21;97094.56;;;22.03;67.66
70589;BME280;58152;49.202;18.744;2023-07-13T05:30:50;97090.09;;;22.04;67.26
70589;BME280;58152;49.202;18.744;2023-07-13T05:33:16;97084.59;;;22.05;67.49
70589;BME280;58152;49.202;18.744;2023-07-13T05:35:41;97091.44;;;22.08;67.39
70589;BME280;58152;49.202;18.744;2023-07-13T05:38:09;97090.06;;;22.14;67.51
70589;BME280;58152;49.202;18.744;2023-07-13T05:47:38;97090.31;;;22.11;67.90
70589;BME280;58152;49.202;18.744;2023-07-13T05:50:04;97091.44;;;22.08;67.93
70589;BME280;58152;49.202;18.744;2023-07-13T05:52:30;97094.44;;;22.15;67.67
70589;BME280;58152;49.202;18.744;2023-07-13T05:54:58;97092.44;;;22.17;67.87
70589;BME280;58152;49.202;18.744;2023-07-13T06:00:30;97099.47;;;22.18;68.35
70589;BME280;58152;49.202;18.744;2023-07-13T06:02:59;97099.47;;;22.18;68.31
70589;BME280;58152;49.202;18.744;2023-07-13T06:05:24;97116.59;;;22.25;68.00
70589;BME280;58152;49.202;18.744;2023-07-13T06:08:01;97104.50;;;22.21;68.08
70589;BME280;58152;49.202;18.744;2023-07-13T06:10:26;97112.41;;;22.22;68.30
70589;BME280;58152;49.202;18.744;2023-07-13T06:16:00;97109.16;;;22.19;67.83
70589;BME280;58152;49.202;18.744;2023-07-13T06:18:47;97105.22;;;22.23;67.77
70589;BME280;58152;49.202;18.744;2023-07-13T06:25:21;97110.44;;;22.15;67.94
70589;BME280;58152;49.202;18.744;2023-07-13T06:28:45;97121.28;;;22.13;68.21
70589;BME280;58152;49.202;18.744;2023-07-13T06:35:25;97118.91;;;22.00;68.49
70589;BME280;58152;49.202;18.744;2023-07-13T06:45:17;97130.88;;;21.96;69.74
70589;BME280;58152;49.202;18.744;2023-07-13T06:51:10;97130.06;;;21.86;67.90
70589;BME280;58152;49.202;18.744;2023-07-13T06:53:57;97129.22;;;21.86;67.82
70589;BME280;58152;49.202;18.744;2023-07-13T07:00:24;97132.19;;;21.82;67.54
70589;BME280;58152;49.202;18.744;2023-07-13T07:12:39;97126.72;;;21.74;68.01
70589;BME280;58152;49.202;18.744;2023-07-13T07:18:57;97124.88;;;21.75;68.50
70589;BME280;58152;49.202;18.744;2023-07-13T07:21:23;97127.44;;;21.76;68.60
70589;BME280;58152;49.202;18.744;2023-07-13T07:23:48;97120.53;;;21.74;68.94
70589;BME280;58152;49.202;18.744;2023-07-13T07:26:14;97123.22;;;21.74;69.02
70589;BME280;58152;49.202;18.744;2023-07-13T07:28:40;97125.44;;;21.78;69.04
70589;BME280;58152;49.202;18.744;2023-07-13T07:31:06;97121.78;;;21.79;69.26
70589;BME280;58152;49.202;18.744;2023-07-13T07:33:50;97116.03;;;21.74;69.85
70589;BME280;58152;49.202;18.744;2023-07-13T07:36:16;97111.69;;;21.73;69.27
70589;BME280;58152;49.202;18.744;2023-07-13T07:38:42;97110.41;;;21.77;69.53
70589;BME280;58152;49.202;18.744;2023-07-13T07:41:16;97107.88;;;21.76;69.96
70589;BME280;58152;49.202;18.744;2023-07-13T07:43:42;97103.41;;;21.76;69.68
70589;BME280;58152;49.202;18.744;2023-07-13T07:46:07;97110.09;;;21.80;69.92
70589;BME280;58152;49.202;18.744;2023-07-13T07:48:35;97109.16;;;21.81;70.04
70589;BME280;58152;49.202;18.744;2023-07-13T07:53:47;97107.72;;;21.87;69.95
70589;BME280;58152;49.202;18.744;2023-07-13T07:56:18;97111.22;;;21.88;70.03
70589;BME280;58152;49.202;18.744;2023-07-13T07:58:43;97108.72;;;21.86;70.38
70589;BME280;58152;49.202;18.744;2023-07-13T08:04:36;97111.81;;;21.81;70.34
70589;BME280;58152;49.202;18.744;2023-07-13T08:07:03;97105.91;;;21.78;70.26
70589;BME280;58152;49.202;18.744;2023-07-13T08:12:50;97115.75;;;21.77;70.28
70589;BME280;58152;49.202;18.744;2023-07-13T08:15:36;97120.25;;;21.77;69.92
70589;BME280;58152;49.202;18.744;2023-07-13T08:25:50;97115.16;;;21.83;70.26
70589;BME280;58152;49.202;18.744;2023-07-13T08:28:35;97118.56;;;21.86;70.04
70589;BME280;58152;49.202;18.744;2023-07-13T08:31:08;97115.72;;;21.87;69.59
70589;BME280;58152;49.202;18.744;2023-07-13T08:33:48;97117.13;;;21.91;69.83
70589;BME280;58152;49.202;18.744;2023-07-13T08:36:17;97122.47;;;21.91;69.91
70589;BME280;58152;49.202;18.744;2023-07-13T10:20:26;97158.31;;;21.79;72.40
70589;BME280;58152;49.202;18.744;2023-07-13T10:23:00;97173.75;;;21.85;72.30
70589;BME280;58152;49.202;18.744;2023-07-13T10:25:39;97177.56;;;21.82;72.77
70589;BME280;58152;49.202;18.744;2023-07-13T10:31:41;97172.09;;;21.84;72.59
70589;BME280;58152;49.202;18.744;2023-07-13T10:34:11;97175.47;;;21.86;72.44
70589;BME280;58152;49.202;18.744;2023-07-13T10:36:45;97180.38;;;21.91;72.99
70589;BME280;58152;49.202;18.744;2023-07-13T10:39:31;97167.03;;;21.91;72.96
70589;BME280;58152;49.202;18.744;2023-07-13T10:42:04;97165.88;;;21.93;72.65
70589;BME280;58152;49.202;18.744;2023-07-13T10:44:32;97180.47;;;21.99;72.46
70589;BME280;58152;49.202;18.744;2023-07-13T10:47:13;97188.75;;;22.05;72.88
70589;BME280;58152;49.202;18.744;2023-07-13T10:49:41;97188.22;;;22.02;72.50
70589;BME280;58152;49.202;18.744;2023-07-13T10:52:46;97203.53;;;22.10;72.98
70589;BME280;58152;49.202;18.744;2023-07-13T10:58:35;97195.50;;;22.19;72.66
70589;BME280;58152;49.202;18.744;2023-07-13T11:01:10;97205.34;;;22.19;72.34
70589;BME280;58152;49.202;18.744;2023-07-13T11:06:37;97213.22;;;22.20;73.18
70589;BME280;58152;49.202;18.744;2023-07-13T11:09:38;97227.56;;;22.19;72.67
70589;BME280;58152;49.202;18.744;2023-07-13T11:12:27;97225.50;;;22.13;72.80
70589;BME280;58152;49.202;18.744;2023-07-13T11:25:27;97232.38;;;21.96;73.42
70589;BME280;58152;49.202;18.744;2023-07-13T11:28:24;97222.94;;;21.92;74.46
70589;BME280;58152;49.202;18.744;2023-07-13T11:33:25;97235.31;;;21.93;73.44
70589;BME280;58152;49.202;18.744;2023-07-13T11:38:43;97221.38;;;22.09;73.15
70589;BME280;58152;49.202;18.744;2023-07-13T11:41:37;97219.28;;;22.13;73.15
70589;BME280;58152;49.202;18.744;2023-07-13T11:44:22;97222.78;;;22.23;72.36
70589;BME280;58152;49.202;18.744;2023-07-13T11:46:59;97240.34;;;22.63;71.84
70589;BME280;58152;49.202;18.744;2023-07-13T11:49:29;97234.91;;;22.92;71.49
70589;BME280;58152;49.202;18.744;2023-07-13T11:51:56;97231.94;;;22.85;70.35
70589;BME280;58152;49.202;18.744;2023-07-13T11:54:34;97238.00;;;22.87;70.05
70589;BME280;58152;49.202;18.744;2023-07-13T11:57:30;97243.63;;;22.84;69.04
70589;BME280;58152;49.202;18.744;2023-07-13T11:59:58;97226.78;;;22.74;68.78
70589;BME280;58152;49.202;18.744;2023-07-13T12:02:33;97232.72;;;22.68;68.30
70589;BME280;58152;49.202;18.744;2023-07-13T12:05:02;97234.47;;;22.59;68.38
70589;BME280;58152;49.202;18.744;2023-07-13T12:07:31;97237.44;;;22.56;68.67
70589;BME280;58152;49.202;18.744;2023-07-13T12:10:21;97242.94;;;22.54;68.95
70589;BME280;58152;49.202;18.744;2023-07-13T12:13:18;97232.97;;;22.47;68.45
70589;BME280;58152;49.202;18.744;2023-07-13T12:16:00;97235.91;;;22.44;68.68
70589;BME280;58152;49.202;18.744;2023-07-13T12:18:30;97237.03;;;22.51;68.40
70589;BME280;58152;49.202;18.744;2023-07-13T12:21:16;97228.91;;;22.70;67.41
70589;BME280;58152;49.202;18.744;2023-07-13T12:23:47;97233.59;;;22.68;67.36
70589;BME280;58152;49.202;18.744;2023-07-13T12:26:32;97215.44;;;22.62;67.46
70589;BME280;58152;49.202;18.744;2023-07-13T12:29:01;97225.84;;;22.65;66.72
70589;BME280;58152;49.202;18.744;2023-07-13T12:36:30;97234.81;;;22.74;66.31
70589;BME280;58152;49.202;18.744;2023-07-13T12:39:01;97248.03;;;22.75;66.64
70589;BME280;58152;49.202;18.744;2023-07-13T12:41:32;97253.16;;;22.69;66.07
70589;BME280;58152;49.202;18.744;2023-07-13T12:44:01;97264.81;;;22.68;66.09
70589;BME280;58152;49.202;18.744;2023-07-13T12:46:47;97269.03;;;22.70;66.08
70589;BME280;58152;49.202;18.744;2023-07-13T12:49:23;97258.09;;;22.64;66.16
70589;BME280;58152;49.202;18.744;2023-07-13T12:52:02;97251.06;;;22.53;66.01
70589;BME280;58152;49.202;18.744;2023-07-13T12:54:29;97266.00;;;22.55;65.72
70589;BME280;58152;49.202;18.744;2023-07-13T12:56:56;97266.44;;;22.51;65.99
70589;BME280;58152;49.202;18.744;2023-07-13T12:59:43;97267.72;;;22.47;66.00
70589;BME280;58152;49.202;18.744;2023-07-13T13:02:30;97256.88;;;22.48;66.00
70589;BME280;58152;49.202;18.744;2023-07-13T13:05:02;97265.59;;;22.50;65.94
70589;BME280;58152;49.202;18.744;2023-07-13T13:07:29;97266.44;;;22.51;66.23
70589;BME280;58152;49.202;18.744;2023-07-13T13:09:55;97263.75;;;22.51;66.57
70589;BME280;58152;49.202;18.744;2023-07-13T13:12:23;97255.44;;;22.54;67.02
70589;BME280;58152;49.202;18.744;2023-07-13T13:14:54;97262.16;;;22.58;67.29
70589;BME280;58152;49.202;18.744;2023-07-13T13:17:29;97247.53;;;22.62;67.36
70589;BME280;58152;49.202;18.744;2023-07-13T13:20:01;97258.56;;;22.77;67.35
70589;BME280;58152;49.202;18.744;2023-07-13T13:22:26;97255.03;;;22.96;67.13
70589;BME280;58152;49.202;18.744;2023-07-13T13:24:52;97248.66;;;22.97;67.17
70589;BME280;58152;49.202;18.744;2023-07-13T13:27:20;97252.84;;;22.99;66.98
70589;BME280;58152;49.202;18.744;2023-07-13T13:29:46;97264.81;;;23.05;66.43
70589;BME280;58152;49.202;18.744;2023-07-13T13:32:13;97271.78;;;23.16;65.73
70589;BME280;58152;49.202;18.744;2023-07-13T13:34:42;97248.78;;;23.23;65.57
70589;BME280;58152;49.202;18.744;2023-07-13T13:37:23;97249.63;;;23.41;65.52
70589;BME280;58152;49.202;18.744;2023-07-13T13:39:50;97251.19;;;23.44;65.81
70589;BME280;58152;49.202;18.744;2023-07-13T13:42:17;97249.03;;;23.47;65.42
70589;BME280;58152;49.202;18.744;2023-07-13T13:44:42;97241.59;;;23.41;65.06
70589;BME280;58152;49.202;18.744;2023-07-13T13:47:30;97246.72;;;23.34;64.63
70589;BME280;58152;49.202;18.744;2023-07-13T13:49:56;97227.34;;;23.23;64.88
70589;BME280;58152;49.202;18.744;2023-07-13T13:52:23;97238.22;;;23.21;64.63
70589;BME280;58152;49.202;18.744;2023-07-13T13:54:50;97249.09;;;23.20;64.95
70589;BME280;58152;49.202;18.744;2023-07-13T13:57:15;97234.78;;;23.11;65.26
70589;BME280;58152;49.202;18.744;2023-07-13T13:59:41;97251.66;;;23.12;65.51
70589;BME280;58152;49.202;18.744;2023-07-13T14:02:27;97239.03;;;23.04;65.72
70589;BME280;58152;49.202;18.744;2023-07-13T14:04:58;97229.34;;;23.03;65.58
70589;BME280;58152;49.202;18.744;2023-07-13T14:07:25;97233.84;;;23.02;65.88
70589;BME280;58152;49.202;18.744;2023-07-13T14:09:53;97218.09;;;22.99;65.97
70589;BME280;58152;49.202;18.744;2023-07-13T14:12:20;97222.31;;;23.02;66.06
70589;BME280;58152;49.202;18.744;2023-07-13T14:14:46;97218.47;;;23.04;66.03
70589;BME280;58152;49.202;18.744;2023-07-13T14:17:23;97235.06;;;23.08;65.99
70589;BME280;58152;49.202;18.744;2023-07-13T14:19:50;97228.34;;;23.04;66.34
70589;BME280;58152;49.202;18.744;2023-07-13T14:22:17;97230.88;;;23.05;66.47
70589;BME280;58152;49.202;18.744;2023-07-13T14:24:45;97232.28;;;23.10;66.55
70589;BME280;58152;49.202;18.744;2023-07-13T14:27:11;97233.09;;;23.10;66.51
70589;BME280;58152;49.202;18.744;2023-07-13T14:29:37;97230.28;;;23.12;66.66
70589;BME280;58152;49.202;18.744;2023-07-13T14:32:03;97225.84;;;23.20;66.88
70589;BME280;58152;49.202;18.744;2023-07-13T14:34:29;97223.09;;;23.30;66.86
70589;BME280;58152;49.202;18.744;2023-07-13T14:36:55;97217.03;;;23.46;66.02
70589;BME280;58152;49.202;18.744;2023-07-13T14:39:25;97236.72;;;23.72;65.46
70589;BME280;58152;49.202;18.744;2023-07-13T14:41:53;97242.47;;;23.77;65.80
70589;BME280;58152;49.202;18.744;2023-07-13T14:44:26;97228.22;;;23.77;65.15
70589;BME280;58152;49.202;18.744;2023-07-13T14:46:56;97228.94;;;23.79;65.11
70589;BME280;58152;49.202;18.744;2023-07-13T14:49:39;97231.44;;;23.80;64.79
70589;BME280;58152;49.202;18.744;2023-07-13T14:52:21;97247.63;;;23.71;64.55
70589;BME280;58152;49.202;18.744;2023-07-13T14:54:47;97244.72;;;23.64;64.66
70589;BME280;58152;49.202;18.744;2023-07-13T14:57:17;97248.75;;;23.68;64.21
70589;BME280;58152;49.202;18.744;2023-07-13T14:59:44;97251.59;;;23.67;64.28
70589;BME280;58152;49.202;18.744;2023-07-13T15:04:41;97262.72;;;23.62;64.35
70589;BME280;58152;49.202;18.744;2023-07-13T15:07:09;97261.88;;;23.62;64.26
70589;BME280;58152;49.202;18.744;2023-07-13T15:09:35;97248.78;;;23.58;64.58
70589;BME280;58152;49.202;18.744;2023-07-13T15:12:01;97252.13;;;23.70;64.21
70589;BME280;58152;49.202;18.744;2023-07-13T15:14:29;97248.28;;;23.91;63.71
70589;BME280;58152;49.202;18.744;2023-07-13T15:16:56;97245.59;;;23.91;64.12
70589;BME280;58152;49.202;18.744;2023-07-13T15:19:22;97237.56;;;23.91;63.76
70589;BME280;58152;49.202;18.744;2023-07-13T15:21:49;97246.03;;;24.04;63.33
70589;BME280;58152;49.202;18.744;2023-07-13T15:24:15;97251.38;;;24.04;63.57
70589;BME280;58152;49.202;18.744;2023-07-13T15:26:41;97259.59;;;24.02;63.28
70589;BME280;58152;49.202;18.744;2023-07-13T15:29:11;97249.66;;;23.95;63.14
70589;BME280;58152;49.202;18.744;2023-07-13T15:31:36;97256.19;;;23.92;63.14
70589;BME280;58152;49.202;18.744;2023-07-13T15:34:11;97252.78;;;23.90;63.75
70589;BME280;58152;49.202;18.744;2023-07-13T15:36:40;97248.59;;;23.88;63.79
70589;BME280;58152;49.202;18.744;2023-07-13T15:39:06;97261.16;;;23.87;63.96
70589;BME280;58152;49.202;18.744;2023-07-13T15:41:33;97264.97;;;23.84;63.59
70589;BME280;58152;49.202;18.744;2023-07-13T15:44:00;97251.03;;;23.81;63.74
70589;BME280;58152;49.202;18.744;2023-07-13T15:46:30;97255.72;;;23.79;63.78
70589;BME280;58152;49.202;18.744;2023-07-13T15:48:58;97251.97;;;23.72;63.45
70589;BME280;58152;49.202;18.744;2023-07-13T15:51:27;97247.78;;;23.69;63.67
70589;BME280;58152;49.202;18.744;2023-07-13T15:53:55;97252.97;;;23.71;63.69
70589;BME280;58152;49.202;18.744;2023-07-13T15:56:35;97262.00;;;23.70;63.70
70589;BME280;58152;49.202;18.744;2023-07-13T15:59:02;97261.16;;;23.69;63.56
70589;BME280;58152;49.202;18.744;2023-07-13T16:01:32;97259.88;;;23.73;62.98
70589;BME280;58152;49.202;18.744;2023-07-13T16:04:03;97252.34;;;23.77;63.39
70589;BME280;58152;49.202;18.744;2023-07-13T16:06:33;97249.66;;;23.77;62.76
70589;BME280;58152;49.202;18.744;2023-07-13T16:09:01;97249.00;;;23.75;62.23
70589;BME280;58152;49.202;18.744;2023-07-13T16:11:34;97254.56;;;23.81;62.11
70589;BME280;58152;49.202;18.744;2023-07-13T16:14:03;97241.50;;;23.78;62.03
70589;BME280;58152;49.202;18.744;2023-07-13T16:16:33;97256.94;;;23.84;61.46
70589;BME280;58152;49.202;18.744;2023-07-13T16:19:23;97261.16;;;23.87;61.18
70589;BME280;58152;49.202;18.744;2023-07-13T16:21:54;97252.03;;;23.80;61.51
70589;BME280;58152;49.202;18.744;2023-07-13T16:24:35;97244.16;;;23.78;61.18
70589;BME280;58152;49.202;18.744;2023-07-13T16:27:02;97251.03;;;23.81;61.37
70589;BME280;58152;49.202;18.744;2023-07-13T16:29:30;97244.47;;;23.75;61.59